Time;durP1;ratioP1;P1;durP2;ratioP2;P2;SDS_P1;SDS_P2;PMS_P1;PMS_P2;Temp;Humidity;BMP_temperature;BMP_pressure;BME280_temperature;BME280_humidity;BME280_pressure;Samples;Min_cycle;Max_cycle;Signal;HPM_P1;HPM_P2
2023/06/11 00:00:19;;;;;;;7.05;2.78;;;23.30;96.70;;;;;;5080766;28;20040;-70
2023/06/11 00:02:53;;;;;;;5.13;2.58;;;23.20;96.70;;;;;;5070800;28;20334;-69
2023/06/11 00:05:22;;;;;;;7.28;2.95;;;23.20;96.70;;;;;;5074676;28;20086;-70
2023/06/11 00:08:12;;;;;;;6.25;2.83;;;23.30;96.70;;;;;;4999524;28;20192;-70
2023/06/11 00:10:52;;;;;;;6.47;3.38;;;23.30;96.70;;;;;;4998890;28;20050;-69
2023/06/11 00:13:20;;;;;;;6.65;2.80;;;23.30;96.70;;;;;;4999733;28;20057;-69
2023/06/11 00:15:48;;;;;;;7.50;2.78;;;23.30;96.70;;;;;;4998568;28;20065;-70
2023/06/11 00:18:18;;;;;;;7.40;3.05;;;23.20;96.70;;;;;;4999404;28;20054;-70
2023/06/11 00:20:47;;;;;;;4.55;2.67;;;23.20;96.70;;;;;;4982962;28;20133;-70
2023/06/11 00:23:16;;;;;;;5.15;2.70;;;23.20;96.70;;;;;;4999034;28;20058;-70
2023/06/11 00:25:44;;;;;;;4.63;2.85;;;23.20;96.70;;;;;;4999982;28;20151;-70
2023/06/11 00:28:16;;;;;;;4.40;2.92;;;23.20;96.70;;;;;;4999755;28;20439;-69
2023/06/11 00:30:44;;;;;;;6.03;3.08;;;23.20;96.70;;;;;;4998433;28;20049;-70
2023/06/11 00:33:12;;;;;;;5.00;2.88;;;23.20;96.70;;;;;;4999037;28;20101;-69
2023/06/11 00:35:42;;;;;;;5.88;2.70;;;23.10;96.70;;;;;;4998510;28;20050;-70
2023/06/11 00:38:10;;;;;;;5.20;2.33;;;23.20;96.70;;;;;;4998325;28;20534;-70
2023/06/11 00:40:39;;;;;;;5.22;2.47;;;23.10;96.70;;;;;;4999953;28;20046;-70
2023/06/11 00:43:08;;;;;;;5.97;2.85;;;23.10;96.70;;;;;;5000337;28;20447;-70
2023/06/11 00:45:37;;;;;;;4.75;2.63;;;23.10;96.70;;;;;;5031786;28;20059;-70
2023/06/11 00:48:05;;;;;;;7.68;3.30;;;23.10;96.70;;;;;;5079202;28;20105;-70
2023/06/11 00:50:44;;;;;;;9.13;2.92;;;23.10;96.70;;;;;;5072715;28;20567;-70
2023/06/11 00:53:14;;;;;;;7.75;3.28;;;23.10;96.70;;;;;;5068824;28;20040;-70
2023/06/11 00:55:43;;;;;;;5.72;2.28;;;23.20;96.70;;;;;;5075162;28;20101;-70
2023/06/11 00:58:15;;;;;;;7.32;2.55;;;23.00;96.70;;;;;;5077837;28;20043;-70
2023/06/11 01:00:46;;;;;;;7.25;3.20;;;23.00;96.70;;;;;;5079010;28;20051;-70
2023/06/11 01:03:21;;;;;;;8.75;2.80;;;22.90;96.70;;;;;;5079179;28;20043;-70
2023/06/11 01:05:53;;;;;;;7.50;2.72;;;22.90;96.70;;;;;;5079878;28;20481;-70
2023/06/11 01:08:26;;;;;;;3.20;2.60;;;23.00;96.70;;;;;;5080908;28;20059;-70
2023/06/11 01:10:59;;;;;;;6.80;2.60;;;23.00;96.70;;;;;;5080538;28;20101;-70
2023/06/11 01:13:28;;;;;;;4.32;2.22;;;22.90;96.70;;;;;;5055692;28;20050;-70
2023/06/11 01:16:02;;;;;;;7.97;3.33;;;22.90;96.70;;;;;;5075595;28;20068;-70
2023/06/11 01:18:37;;;;;;;6.82;2.78;;;22.90;96.70;;;;;;5074176;28;20544;-70
2023/06/11 01:21:12;;;;;;;6.33;2.80;;;22.80;96.70;;;;;;5083374;28;20120;-70
2023/06/11 01:23:48;;;;;;;4.43;2.30;;;22.70;96.70;;;;;;5083687;28;20306;-70
2023/06/11 01:26:29;;;;;;;5.78;2.65;;;22.80;96.70;;;;;;5080564;28;20387;-70
2023/06/11 01:29:01;;;;;;;5.05;2.80;;;22.70;96.70;;;;;;5084263;28;20502;-70
2023/06/11 01:31:32;;;;;;;5.15;2.47;;;22.70;96.70;;;;;;5083677;28;20061;-70
2023/06/11 01:34:01;;;;;;;7.20;2.60;;;22.80;96.70;;;;;;5082742;28;20048;-70
2023/06/11 01:36:36;;;;;;;5.80;2.47;;;22.90;96.70;;;;;;5082440;28;20473;-70
2023/06/11 01:39:06;;;;;;;4.32;2.75;;;22.80;96.70;;;;;;5082425;28;20713;-70
2023/06/11 01:41:54;;;;;;;4.95;2.53;;;22.90;96.70;;;;;;5078764;28;20121;-70
2023/06/11 01:44:25;;;;;;;6.00;2.50;;;22.90;96.70;;;;;;5079769;28;20056;-70
2023/06/11 01:46:53;;;;;;;5.28;3.00;;;22.80;96.70;;;;;;5082591;28;20046;-70
2023/06/11 01:49:22;;;;;;;7.82;3.10;;;22.80;96.70;;;;;;5083464;28;20047;-70
2023/06/11 01:51:50;;;;;;;4.95;3.38;;;22.80;96.70;;;;;;5083332;28;21409;-70
2023/06/11 01:54:18;;;;;;;5.60;2.60;;;22.80;96.70;;;;;;5083447;28;20572;-70
2023/06/11 01:56:46;;;;;;;5.68;2.42;;;22.80;96.70;;;;;;5075062;28;20059;-70
2023/06/11 01:59:17;;;;;;;4.15;2.55;;;22.70;96.70;;;;;;5085210;28;20090;-70
2023/06/11 02:01:52;;;;;;;5.97;2.85;;;22.70;96.70;;;;;;5081944;28;20139;-70
2023/06/11 02:04:21;;;;;;;8.45;3.30;;;22.70;96.70;;;;;;5083199;28;20062;-70
2023/06/11 02:06:50;;;;;;;6.18;2.55;;;22.70;96.70;;;;;;5079349;28;20131;-70
2023/06/11 02:09:18;;;;;;;7.82;3.55;;;22.60;96.70;;;;;;5080789;28;20143;-70
2023/06/11 02:11:46;;;;;;;4.28;2.60;;;22.60;96.70;;;;;;5065419;28;20715;-70
2023/06/11 02:14:14;;;;;;;7.47;3.13;;;22.70;96.70;;;;;;5082980;28;20042;-71
2023/06/11 02:16:42;;;;;;;4.40;3.05;;;22.60;96.70;;;;;;5079644;28;20040;-70
2023/06/11 02:19:12;;;;;;;4.40;2.65;;;22.60;96.70;;;;;;5074028;28;20052;-70
2023/06/11 02:21:41;;;;;;;7.47;2.85;;;22.50;96.70;;;;;;5076059;28;20051;-70
2023/06/11 02:24:08;;;;;;;6.57;2.88;;;22.50;96.70;;;;;;5077209;28;20097;-70
2023/06/11 02:26:37;;;;;;;6.60;3.10;;;22.50;96.70;;;;;;5064033;28;20438;-70
2023/06/11 02:29:05;;;;;;;12.10;3.33;;;22.50;96.70;;;;;;5071390;28;20052;-70
2023/06/11 02:31:33;;;;;;;5.70;2.50;;;22.50;96.70;;;;;;5079926;28;20132;-70
2023/06/11 02:34:02;;;;;;;7.07;2.95;;;22.50;96.70;;;;;;5082403;28;20131;-70
2023/06/11 02:36:31;;;;;;;7.80;2.75;;;22.50;96.70;;;;;;5077357;28;20449;-70
2023/06/11 02:38:59;;;;;;;9.15;3.35;;;22.40;96.70;;;;;;5082449;28;20131;-70
2023/06/11 02:41:27;;;;;;;8.63;2.40;;;22.30;96.70;;;;;;5056758;28;20110;-69
2023/06/11 02:43:55;;;;;;;7.78;2.88;;;22.30;96.70;;;;;;5080435;28;20521;-70
2023/06/11 02:46:23;;;;;;;7.78;3.10;;;22.30;96.70;;;;;;5073227;28;20505;-70
2023/06/11 02:48:52;;;;;;;9.90;2.95;;;22.20;96.70;;;;;;5080625;28;20043;-70
2023/06/11 02:51:20;;;;;;;5.82;2.80;;;22.10;96.70;;;;;;5064045;28;20521;-70
2023/06/11 02:53:49;;;;;;;5.72;2.92;;;22.00;96.70;;;;;;5068548;28;20036;-70
2023/06/11 02:56:17;;;;;;;6.35;2.53;;;22.00;96.70;;;;;;5073943;28;20435;-70
2023/06/11 02:58:47;;;;;;;8.10;2.60;;;22.00;96.70;;;;;;5069435;28;20162;-70
2023/06/11 03:01:15;;;;;;;11.00;3.47;;;22.00;96.70;;;;;;5082223;28;20141;-70
2023/06/11 03:03:43;;;;;;;8.25;3.28;;;22.00;96.70;;;;;;5064502;28;20044;-70
2023/06/11 03:06:14;;;;;;;12.10;3.60;;;21.90;96.70;;;;;;5065007;28;20044;-70
2023/06/11 03:08:42;;;;;;;8.43;3.97;;;21.90;96.70;;;;;;5070814;28;20155;-69
2023/06/11 03:11:11;;;;;;;5.78;3.50;;;21.90;96.70;;;;;;5091942;27;20105;-70
2023/06/11 03:13:44;;;;;;;12.15;4.38;;;21.90;96.70;;;;;;5071945;28;20051;-70
2023/06/11 03:16:12;;;;;;;8.25;4.22;;;21.90;96.70;;;;;;5080181;28;20448;-70
2023/06/11 03:18:41;;;;;;;7.72;4.35;;;21.90;96.70;;;;;;5075963;28;20055;-70
2023/06/11 03:21:10;;;;;;;10.57;5.07;;;21.90;96.70;;;;;;5073779;28;20561;-70
2023/06/11 03:23:38;;;;;;;6.65;5.18;;;22.00;96.70;;;;;;5074122;28;20113;-70
2023/06/11 03:26:06;;;;;;;7.63;4.70;;;22.10;96.70;;;;;;5072699;28;20058;-70
2023/06/11 03:28:41;;;;;;;8.45;5.70;;;22.20;96.70;;;;;;5076578;28;20417;-70
2023/06/11 03:31:11;;;;;;;6.65;5.18;;;22.20;96.70;;;;;;5080628;28;20142;-70
2023/06/11 03:33:39;;;;;;;10.13;5.85;;;22.30;96.70;;;;;;5073955;28;20051;-70
2023/06/11 03:36:07;;;;;;;7.25;4.45;;;22.30;96.70;;;;;;5070617;28;20471;-70
2023/06/11 03:38:35;;;;;;;9.30;4.85;;;22.20;96.70;;;;;;5080917;28;20167;-70
2023/06/11 03:41:04;;;;;;;11.07;6.70;;;22.30;96.70;;;;;;5064364;28;20113;-70
2023/06/11 03:43:34;;;;;;;10.30;5.90;;;22.30;96.70;;;;;;5073779;28;20070;-70
2023/06/11 03:46:04;;;;;;;11.48;7.13;;;22.20;96.70;;;;;;5071002;28;20048;-70
2023/06/11 03:48:33;;;;;;;12.25;7.15;;;22.30;96.70;;;;;;5095517;28;20044;-70
2023/06/11 03:51:01;;;;;;;13.13;7.50;;;22.20;96.70;;;;;;5080890;28;20118;-70
2023/06/11 03:53:30;;;;;;;11.80;7.78;;;22.10;96.70;;;;;;5080786;28;20391;-70
2023/06/11 03:55:58;;;;;;;16.55;8.13;;;22.10;96.70;;;;;;5078529;28;20389;-70
2023/06/11 03:58:26;;;;;;;13.50;7.75;;;22.10;96.70;;;;;;5074561;28;20056;-70
2023/06/11 04:00:54;;;;;;;11.25;7.53;;;22.00;96.70;;;;;;5070570;28;20047;-69
2023/06/11 04:03:24;;;;;;;14.18;8.25;;;22.10;96.70;;;;;;5075454;28;20315;-70
2023/06/11 04:05:52;;;;;;;18.48;9.23;;;22.10;96.70;;;;;;5083867;28;20089;-70
2023/06/11 04:08:20;;;;;;;15.38;9.07;;;22.00;96.70;;;;;;5083953;28;20032;-70
2023/06/11 04:10:52;;;;;;;13.98;9.20;;;22.00;96.70;;;;;;5078720;28;20075;-70
2023/06/11 04:13:20;;;;;;;16.10;9.65;;;22.10;96.70;;;;;;5065119;28;20103;-70
2023/06/11 04:15:48;;;;;;;11.82;8.27;;;22.10;96.70;;;;;;5063172;28;20063;-70
2023/06/11 04:18:16;;;;;;;15.60;9.73;;;22.20;96.70;;;;;;5081970;28;20246;-70
2023/06/11 04:20:45;;;;;;;16.13;10.18;;;22.20;96.70;;;;;;5068973;28;20048;-70
2023/06/11 04:23:13;;;;;;;15.93;10.32;;;22.00;96.70;;;;;;5077208;28;20044;-70
2023/06/11 04:25:43;;;;;;;13.40;8.45;;;22.00;96.70;;;;;;5071594;28;20040;-70
2023/06/11 04:28:16;;;;;;;15.25;9.63;;;22.10;96.70;;;;;;5079765;28;20078;-69
2023/06/11 04:30:44;;;;;;;17.85;10.10;;;22.10;96.70;;;;;;5080141;28;20036;-70
2023/06/11 04:33:15;;;;;;;13.20;9.75;;;22.00;96.70;;;;;;5064105;28;20417;-70
2023/06/11 04:35:47;;;;;;;15.30;10.05;;;22.00;96.70;;;;;;5076998;28;20040;-70
2023/06/11 04:38:15;;;;;;;16.35;9.73;;;21.90;96.70;;;;;;5080687;28;20040;-70
2023/06/11 04:40:45;;;;;;;19.60;10.13;;;21.90;96.70;;;;;;5071978;28;20032;-70
2023/06/11 04:43:13;;;;;;;16.80;9.77;;;22.00;96.70;;;;;;5081720;28;20064;-70
2023/06/11 04:45:42;;;;;;;21.25;10.02;;;22.00;96.70;;;;;;5080604;28;20044;-70
2023/06/11 04:48:13;;;;;;;15.98;9.43;;;22.00;96.70;;;;;;5079444;28;20056;-70
2023/06/11 04:50:41;;;;;;;16.95;9.82;;;22.10;96.70;;;;;;5062946;28;20040;-70
2023/06/11 04:53:12;;;;;;;16.20;9.98;;;22.10;96.70;;;;;;5096045;28;20075;-70
2023/06/11 04:55:41;;;;;;;14.27;9.15;;;22.10;96.70;;;;;;5055618;28;20139;-70
2023/06/11 04:58:09;;;;;;;16.52;9.48;;;22.10;96.70;;;;;;5093365;28;20035;-70
2023/06/11 05:00:38;;;;;;;15.23;10.38;;;22.20;96.70;;;;;;5081982;28;20210;-70
2023/06/11 05:03:07;;;;;;;13.60;8.63;;;22.30;96.70;;;;;;5084413;28;20447;-72
2023/06/11 05:05:37;;;;;;;12.25;8.20;;;22.20;96.70;;;;;;5084057;28;20044;-70
2023/06/11 05:08:06;;;;;;;12.25;7.82;;;22.20;96.70;;;;;;5080607;28;20048;-70
2023/06/11 05:10:37;;;;;;;10.30;7.50;;;22.30;96.70;;;;;;5071213;28;20040;-70
2023/06/11 05:13:06;;;;;;;12.07;7.18;;;22.30;96.70;;;;;;5082792;28;20048;-70
2023/06/11 05:15:34;;;;;;;14.23;7.72;;;22.20;96.70;;;;;;5075590;28;20151;-70
2023/06/11 05:18:04;;;;;;;14.20;9.07;;;22.30;96.70;;;;;;5083498;28;20402;-70
2023/06/11 05:20:35;;;;;;;12.20;8.45;;;22.30;96.70;;;;;;5083465;28;20065;-70
2023/06/11 05:23:04;;;;;;;10.63;7.97;;;22.40;96.70;;;;;;5083332;28;20040;-70
2023/06/11 05:25:36;;;;;;;13.73;8.65;;;22.50;96.70;;;;;;5083235;28;20493;-70
2023/06/11 05:28:07;;;;;;;11.20;8.50;;;22.50;96.70;;;;;;5082226;28;20048;-70
2023/06/11 05:30:37;;;;;;;10.80;7.80;;;22.50;96.70;;;;;;5077136;28;20134;-70
2023/06/11 05:33:07;;;;;;;11.82;8.15;;;22.60;96.70;;;;;;5082020;28;20035;-70
2023/06/11 05:35:35;;;;;;;10.80;8.50;;;22.60;96.70;;;;;;5082171;28;20048;-70
2023/06/11 05:38:03;;;;;;;14.38;9.20;;;22.70;96.70;;;;;;5083074;28;20040;-70
2023/06/11 05:40:31;;;;;;;11.35;8.55;;;22.80;96.70;;;;;;5083929;28;20056;-70
2023/06/11 05:43:01;;;;;;;27.30;23.10;;;22.90;96.70;;;;;;5074764;28;20038;-70
2023/06/11 05:45:30;;;;;;;28.30;23.77;;;22.90;96.70;;;;;;5076439;28;20052;-70
2023/06/11 05:47:59;;;;;;;35.95;25.17;;;23.00;96.70;;;;;;5082773;28;20047;-70
2023/06/11 05:50:27;;;;;;;38.78;33.63;;;23.10;96.70;;;;;;5059887;28;20053;-70
2023/06/11 05:52:56;;;;;;;25.88;21.70;;;23.10;96.70;;;;;;5082189;28;20047;-70
2023/06/11 05:55:24;;;;;;;21.88;18.95;;;23.20;96.70;;;;;;5065050;28;20040;-70
2023/06/11 05:57:53;;;;;;;15.63;11.55;;;23.20;96.70;;;;;;5082111;28;20782;-70
2023/06/11 06:00:23;;;;;;;16.17;9.80;;;23.20;96.70;;;;;;5078637;28;20056;-70
2023/06/11 06:02:53;;;;;;;10.85;7.47;;;23.20;96.70;;;;;;5082390;28;20044;-70
2023/06/11 06:05:26;;;;;;;10.80;8.18;;;23.20;96.70;;;;;;5082193;28;20055;-70
2023/06/11 06:07:55;;;;;;;77.28;64.05;;;23.10;96.70;;;;;;5081705;28;20049;-69
2023/06/11 06:10:23;;;;;;;18.27;13.40;;;23.20;96.70;;;;;;5066094;28;20044;-70
2023/06/11 06:12:52;;;;;;;15.23;9.88;;;23.30;96.70;;;;;;5082611;28;20497;-70
2023/06/11 06:15:20;;;;;;;14.38;9.73;;;23.30;96.70;;;;;;5073911;28;20524;-70
2023/06/11 06:17:49;;;;;;;17.33;13.50;;;23.30;96.70;;;;;;5076108;28;20056;-70
2023/06/11 06:20:26;;;;;;;16.52;11.00;;;23.40;96.70;;;;;;5078831;28;20048;-70
2023/06/11 06:22:53;;;;;;;12.43;8.75;;;23.40;96.70;;;;;;5083580;28;20128;-70
2023/06/11 06:25:24;;;;;;;12.05;9.00;;;23.50;96.70;;;;;;5079736;28;20048;-70
2023/06/11 06:27:53;;;;;;;11.63;7.15;;;23.60;96.70;;;;;;5075312;28;20452;-70
2023/06/11 06:30:21;;;;;;;14.75;7.68;;;23.70;96.70;;;;;;5082697;28;20051;-70
2023/06/11 06:32:51;;;;;;;8.40;6.65;;;23.70;96.70;;;;;;5080786;28;20075;-70
2023/06/11 06:35:19;;;;;;;14.30;8.40;;;23.70;96.70;;;;;;5100104;28;20512;-70
2023/06/11 06:37:47;;;;;;;15.57;8.43;;;23.70;96.70;;;;;;5082571;28;20148;-70
2023/06/11 06:40:15;;;;;;;11.60;7.18;;;23.80;96.70;;;;;;5086707;28;20048;-70
2023/06/11 06:42:43;;;;;;;10.77;6.45;;;23.80;96.70;;;;;;5066625;28;20159;-70
2023/06/11 06:45:16;;;;;;;13.20;8.38;;;23.80;96.70;;;;;;5081859;28;20051;-70
2023/06/11 06:47:44;;;;;;;9.55;6.63;;;23.90;96.70;;;;;;5063532;28;20136;-70
2023/06/11 06:50:14;;;;;;;9.90;5.95;;;23.80;96.70;;;;;;5081331;28;20059;-70
2023/06/11 06:52:43;;;;;;;6.57;5.43;;;23.90;96.70;;;;;;5081917;28;20083;-70
2023/06/11 06:55:11;;;;;;;10.05;5.43;;;23.80;96.70;;;;;;5083162;28;20515;-70
2023/06/11 06:57:39;;;;;;;10.57;5.38;;;23.70;96.70;;;;;;5077911;28;20055;-70
2023/06/11 07:00:10;;;;;;;9.38;5.07;;;23.60;96.70;;;;;;5079492;28;20394;-70
2023/06/11 07:02:38;;;;;;;7.72;5.80;;;23.60;96.70;;;;;;5077922;28;20072;-70
2023/06/11 07:05:08;;;;;;;7.25;5.00;;;23.70;96.70;;;;;;5082094;28;20047;-70
2023/06/11 07:07:37;;;;;;;7.05;5.30;;;23.80;96.70;;;;;;5065344;28;20048;-70
2023/06/11 07:10:10;;;;;;;7.22;5.43;;;23.90;96.70;;;;;;5081142;28;20058;-70
2023/06/11 07:12:40;;;;;;;9.75;5.25;;;23.80;96.70;;;;;;5080089;28;20520;-70
2023/06/11 07:15:08;;;;;;;7.97;5.50;;;23.80;96.70;;;;;;5081224;28;20047;-70
2023/06/11 07:17:37;;;;;;;7.30;5.90;;;23.90;96.70;;;;;;5080957;28;20044;-70
2023/06/11 07:20:09;;;;;;;9.63;5.45;;;24.00;96.70;;;;;;5080378;28;20040;-70
2023/06/11 07:22:39;;;;;;;9.57;5.65;;;23.90;96.70;;;;;;5080272;28;20072;-70
2023/06/11 07:25:08;;;;;;;7.18;5.28;;;23.80;96.70;;;;;;5081514;28;20063;-70
2023/06/11 07:27:36;;;;;;;8.23;6.22;;;23.70;96.70;;;;;;5081678;28;20079;-70
2023/06/11 07:30:05;;;;;;;8.00;5.93;;;23.70;96.70;;;;;;5081038;28;20466;-70
2023/06/11 07:32:33;;;;;;;6.25;5.65;;;23.60;96.70;;;;;;5080977;28;20143;-70
2023/06/11 07:35:01;;;;;;;7.53;5.80;;;23.70;96.70;;;;;;5084400;28;20520;-70
2023/06/11 07:37:32;;;;;;;7.30;5.93;;;23.90;96.70;;;;;;5070269;28;20538;-70
2023/06/11 07:40:01;;;;;;;8.45;5.93;;;24.00;96.70;;;;;;5091437;28;20067;-70
2023/06/11 07:42:29;;;;;;;8.50;5.75;;;23.90;96.70;;;;;;5080634;28;20040;-70
2023/06/11 07:44:57;;;;;;;6.53;5.75;;;24.00;96.70;;;;;;5064537;28;20530;-70
2023/06/11 07:47:24;;;;;;;8.10;6.00;;;23.90;96.70;;;;;;5080391;28;20524;-70
2023/06/11 07:49:54;;;;;;;7.15;5.68;;;24.00;96.70;;;;;;5080209;28;20059;-70
2023/06/11 07:52:22;;;;;;;7.30;5.80;;;24.00;96.70;;;;;;5063864;28;20048;-71
2023/06/11 07:54:50;;;;;;;8.15;5.78;;;24.00;96.70;;;;;;5081490;28;20047;-70
2023/06/11 07:57:20;;;;;;;6.20;5.35;;;24.00;96.70;;;;;;5082931;28;20047;-70
2023/06/11 07:59:48;;;;;;;12.13;6.57;;;24.10;96.70;;;;;;5079180;28;20044;-70
2023/06/11 08:02:16;;;;;;;6.60;5.22;;;24.20;96.70;;;;;;5080951;28;20035;-71
2023/06/11 08:04:44;;;;;;;8.32;5.43;;;24.20;96.70;;;;;;5071093;28;20114;-68
2023/06/11 08:07:12;;;;;;;6.10;5.05;;;24.30;96.70;;;;;;5080164;28;20036;-69
2023/06/11 08:09:40;;;;;;;5.68;4.80;;;24.30;96.70;;;;;;5082697;28;20068;-71
2023/06/11 08:12:11;;;;;;;5.90;4.60;;;24.40;96.70;;;;;;5082991;28;20044;-68
2023/06/11 08:14:41;;;;;;;6.60;4.68;;;24.50;96.70;;;;;;5080588;28;20056;-68
2023/06/11 08:17:08;;;;;;;6.97;4.68;;;24.50;96.70;;;;;;5074535;28;20047;-69
2023/06/11 08:19:36;;;;;;;6.70;4.88;;;24.50;96.70;;;;;;5082174;28;20117;-69
2023/06/11 08:22:04;;;;;;;6.10;4.97;;;24.40;96.70;;;;;;5081713;28;20046;-70
2023/06/11 08:24:32;;;;;;;6.43;5.35;;;24.50;96.70;;;;;;5081268;28;20052;-69
2023/06/11 08:27:00;;;;;;;6.28;4.53;;;24.50;96.70;;;;;;5073405;28;20094;-69
2023/06/11 08:29:28;;;;;;;6.95;5.05;;;24.60;96.70;;;;;;5080934;28;20102;-70
2023/06/11 08:31:57;;;;;;;5.75;4.95;;;24.70;96.70;;;;;;5083151;28;20101;-69
2023/06/11 08:34:25;;;;;;;6.03;4.40;;;24.70;96.70;;;;;;5083792;28;20141;-70
2023/06/11 08:36:53;;;;;;;5.47;4.82;;;24.90;96.70;;;;;;5082533;28;20039;-69
2023/06/11 08:39:30;;;;;;;5.28;4.68;;;24.90;96.70;;;;;;5084799;28;20089;-70
2023/06/11 08:41:58;;;;;;;6.22;4.05;;;24.90;96.70;;;;;;5084987;28;20051;-70
2023/06/11 08:44:26;;;;;;;5.55;4.18;;;24.90;96.70;;;;;;5079779;28;20463;-70
2023/06/11 08:46:58;;;;;;;7.47;4.40;;;25.00;96.70;;;;;;5084102;28;20532;-70
2023/06/11 08:49:29;;;;;;;6.55;4.30;;;25.00;96.70;;;;;;5084033;28;20058;-72
2023/06/11 08:52:00;;;;;;;5.50;4.55;;;25.00;96.70;;;;;;5084723;28;20044;-70
2023/06/11 08:54:28;;;;;;;5.57;3.80;;;25.10;96.70;;;;;;5084141;28;20044;-69
2023/06/11 08:56:56;;;;;;;4.88;3.72;;;25.10;96.70;;;;;;5078206;28;20065;-70
2023/06/11 08:59:24;;;;;;;6.65;4.07;;;25.20;96.70;;;;;;5076854;28;20161;-70
2023/06/11 09:01:52;;;;;;;5.43;3.92;;;25.30;96.70;;;;;;5081946;28;20092;-69
2023/06/11 09:04:21;;;;;;;4.55;3.42;;;25.40;96.70;;;;;;5080527;28;20051;-69
2023/06/11 09:06:51;;;;;;;5.82;3.47;;;25.50;96.70;;;;;;5078093;28;20109;-69
2023/06/11 09:09:19;;;;;;;5.28;3.50;;;25.50;96.70;;;;;;5082231;28;20048;-70
2023/06/11 09:11:48;;;;;;;4.90;3.33;;;25.30;96.70;;;;;;5085768;28;20052;-70
2023/06/11 09:14:15;;;;;;;4.70;3.85;;;25.30;96.70;;;;;;5082928;28;20047;-69
2023/06/11 09:16:45;;;;;;;4.50;3.55;;;25.40;96.70;;;;;;5082423;28;20051;-70
2023/06/11 09:19:15;;;;;;;5.25;3.85;;;25.50;96.70;;;;;;5081372;28;20504;-70
2023/06/11 09:21:54;;;;;;;3.80;3.20;;;25.60;96.70;;;;;;5082674;28;20048;-69
2023/06/11 09:24:24;;;;;;;6.47;3.75;;;25.70;96.70;;;;;;5083887;28;20059;-72
2023/06/11 09:26:54;;;;;;;5.57;4.00;;;25.80;96.70;;;;;;5082872;28;20043;-74
2023/06/11 09:29:23;;;;;;;5.97;3.45;;;25.80;96.70;;;;;;5078524;28;20071;-74
2023/06/11 09:32:02;;;;;;;6.07;3.90;;;25.90;96.70;;;;;;5083840;28;20660;-71
2023/06/11 09:34:44;;;;;;;4.93;3.50;;;25.90;96.70;;;;;;5083596;28;20175;-72
2023/06/11 09:37:14;;;;;;;4.47;3.10;;;25.90;96.70;;;;;;5084623;28;20062;-70
2023/06/11 09:39:45;;;;;;;3.92;3.35;;;25.90;96.70;;;;;;5083778;28;20878;-73
2023/06/11 09:42:23;;;;;;;5.03;3.75;;;25.90;96.70;;;;;;5082745;28;20514;-70
2023/06/11 09:44:51;;;;;;;8.77;4.00;;;26.00;96.70;;;;;;5084896;28;20382;-72
2023/06/11 09:47:20;;;;;;;6.53;3.15;;;26.10;96.70;;;;;;5081544;28;20047;-74
2023/06/11 09:49:50;;;;;;;4.03;3.30;;;26.10;96.70;;;;;;5083032;28;20076;-70
2023/06/11 09:52:20;;;;;;;4.18;3.05;;;26.00;96.70;;;;;;5081495;28;20135;-72
2023/06/11 09:54:50;;;;;;;4.60;3.08;;;26.20;96.70;;;;;;5080015;28;20044;-70
2023/06/11 09:57:19;;;;;;;4.35;3.20;;;26.40;96.70;;;;;;5082022;28;20048;-71
2023/06/11 09:59:48;;;;;;;4.60;3.20;;;26.50;96.70;;;;;;5063029;28;20105;-70
2023/06/11 10:02:16;;;;;;;5.78;3.53;;;26.60;96.70;;;;;;5082041;28;20113;-70
2023/06/11 10:04:44;;;;;;;4.85;3.38;;;26.70;96.70;;;;;;5081789;28;20039;-72
2023/06/11 10:07:12;;;;;;;3.65;3.15;;;26.90;96.70;;;;;;5079172;28;20040;-73
2023/06/11 10:09:43;;;;;;;4.53;3.80;;;27.00;96.70;;;;;;5083568;28;20658;-75
2023/06/11 10:12:11;;;;;;;4.38;3.55;;;27.10;96.70;;;;;;5076891;28;20055;-75
2023/06/11 10:14:50;;;;;;;10.45;4.20;;;27.10;96.70;;;;;;5079786;28;20035;-71
2023/06/11 10:17:18;;;;;;;4.57;2.88;;;27.20;96.70;;;;;;5079895;28;20592;-71
2023/06/11 10:19:48;;;;;;;3.13;2.83;;;27.20;96.70;;;;;;5078229;28;20074;-72
2023/06/11 10:22:21;;;;;;;4.20;2.65;;;27.20;96.70;;;;;;5083895;28;20551;-71
2023/06/11 10:24:59;;;;;;;2.75;2.55;;;27.40;96.70;;;;;;5080000;28;20044;-71
2023/06/11 10:27:37;;;;;;;3.58;2.85;;;27.60;96.70;;;;;;5083380;28;20059;-71
2023/06/11 10:30:07;;;;;;;5.65;3.05;;;27.60;96.70;;;;;;5083023;28;20043;-71
2023/06/11 10:32:46;;;;;;;5.30;3.22;;;27.70;96.70;;;;;;5080838;28;20051;-70
2023/06/11 10:35:22;;;;;;;3.88;3.08;;;27.90;96.70;;;;;;5078384;28;20032;-70
2023/06/11 10:37:51;;;;;;;2.95;2.72;;;28.00;96.70;;;;;;5075600;28;21698;-71
2023/06/11 10:40:31;;;;;;;6.53;3.40;;;28.00;96.70;;;;;;5083617;28;20048;-71
2023/06/11 10:42:59;;;;;;;4.05;3.15;;;28.10;96.70;;;;;;5071645;28;20568;-73
2023/06/11 10:45:35;;;;;;;3.72;3.03;;;28.10;96.70;;;;;;5080450;28;20077;-73
2023/06/11 10:48:03;;;;;;;;;;;28.20;96.70;;;;;;5081448;28;20064;-71
2023/06/11 10:50:31;;;;;;;5.93;3.90;;;28.30;96.70;;;;;;5081700;28;19931;-71
2023/06/11 10:53:02;;;;;;;3.78;3.38;;;28.20;96.70;;;;;;5078368;28;20044;-70
2023/06/11 10:55:34;;;;;;;3.85;2.83;;;28.30;96.70;;;;;;5081504;28;20120;-70
2023/06/11 10:58:02;;;;;;;4.60;3.03;;;28.50;96.70;;;;;;5081205;28;20032;-71
2023/06/11 11:00:34;;;;;;;5.10;3.10;;;28.60;96.70;;;;;;5073413;28;20052;-70
2023/06/11 11:03:04;;;;;;;5.03;2.80;;;28.80;96.70;;;;;;5074418;28;20063;-72
2023/06/11 11:05:32;;;;;;;4.88;3.15;;;28.80;96.70;;;;;;5083106;28;20119;-74
2023/06/11 11:08:00;;;;;;;6.30;2.70;;;28.90;96.70;;;;;;5081529;28;20044;-73
2023/06/11 11:10:29;;;;;;;5.03;2.95;;;28.90;96.70;;;;;;5079829;28;20512;-70
2023/06/11 11:12:58;;;;;;;3.97;2.80;;;29.10;96.70;;;;;;5070823;28;20124;-72
2023/06/11 11:15:29;;;;;;;6.40;3.13;;;29.30;96.70;;;;;;5074750;28;20036;-69
2023/06/11 11:17:57;;;;;;;4.32;2.83;;;29.30;96.70;;;;;;5080424;28;20051;-70
2023/06/11 11:20:25;;;;;;;7.15;4.00;;;29.00;96.70;;;;;;5081011;28;20132;-70
2023/06/11 11:22:55;;;;;;;3.22;2.88;;;28.80;96.70;;;;;;5081302;28;20048;-70
2023/06/11 11:25:27;;;;;;;5.32;2.70;;;29.10;96.70;;;;;;5082488;28;20062;-70
2023/06/11 11:27:57;;;;;;;3.20;2.40;;;29.20;96.70;;;;;;5082915;28;20128;-71
2023/06/11 11:30:28;;;;;;;4.35;2.80;;;29.40;96.70;;;;;;5080369;28;20555;-71
2023/06/11 11:32:56;;;;;;;3.67;2.90;;;29.60;96.70;;;;;;5078582;28;20123;-70
2023/06/11 11:35:26;;;;;;;2.85;2.38;;;29.80;96.70;;;;;;5079009;28;20036;-70
2023/06/11 11:37:54;;;;;;;3.00;2.63;;;30.00;96.70;;;;;;5074560;28;20048;-70
2023/06/11 11:40:23;;;;;;;3.15;2.38;;;30.10;96.70;;;;;;5079988;28;20044;-71
2023/06/11 11:42:52;;;;;;;7.05;3.17;;;30.00;96.70;;;;;;5079032;28;20162;-70
2023/06/11 11:45:23;;;;;;;4.60;2.45;;;29.80;96.70;;;;;;5078955;28;20065;-69
2023/06/11 11:47:52;;;;;;;3.25;2.38;;;30.00;96.70;;;;;;5073231;28;20051;-67
2023/06/11 11:50:22;;;;;;;2.97;2.42;;;30.30;96.70;;;;;;5071867;28;20032;-69
2023/06/11 11:53:04;;;;;;;2.92;2.28;;;30.40;96.70;;;;;;5078261;28;20501;-68
2023/06/11 11:55:33;;;;;;;3.92;2.60;;;30.70;96.70;;;;;;5076570;28;20070;-69
2023/06/11 11:58:06;;;;;;;3.55;2.30;;;30.90;96.70;;;;;;5079872;28;20036;-69
2023/06/11 12:00:37;;;;;;;3.42;2.20;;;31.00;96.70;;;;;;5079529;28;20043;-68
2023/06/11 12:03:09;;;;;;;3.72;2.67;;;31.10;96.70;;;;;;5080400;28;20562;-71
2023/06/11 12:05:38;;;;;;;3.35;2.40;;;31.20;96.70;;;;;;5074974;28;20119;-72
2023/06/11 12:08:06;;;;;;;3.25;2.42;;;31.30;96.70;;;;;;5076566;28;20138;-71
2023/06/11 12:10:35;;;;;;;2.47;2.28;;;31.40;96.70;;;;;;5080908;28;20085;-69
2023/06/11 12:13:05;;;;;;;4.43;2.67;;;31.30;96.70;;;;;;5072666;28;20032;-70
2023/06/11 12:15:35;;;;;;;4.72;2.45;;;31.20;96.70;;;;;;5072678;28;20044;-72
2023/06/11 12:18:03;;;;;;;3.42;2.20;;;31.20;96.70;;;;;;5063275;28;20060;-70
2023/06/11 12:20:31;;;;;;;2.97;2.33;;;30.70;96.70;;;;;;5079531;28;20069;-70
2023/06/11 12:22:59;;;;;;;3.97;2.20;;;30.30;96.70;;;;;;5079721;28;20594;-71
2023/06/11 12:25:32;;;;;;;3.17;2.30;;;30.10;96.70;;;;;;5040132;28;20045;-71
2023/06/11 12:28:00;;;;;;;3.55;2.50;;;29.90;96.70;;;;;;5038790;28;20146;-71
2023/06/11 12:30:30;;;;;;;2.60;1.98;;;29.60;96.70;;;;;;5040674;28;20048;-70
2023/06/11 12:33:00;;;;;;;3.47;2.67;;;29.50;96.70;;;;;;5041651;28;20067;-70
2023/06/11 12:35:29;;;;;;;3.97;2.40;;;29.50;96.70;;;;;;5039256;28;20111;-70
2023/06/11 12:37:57;;;;;;;2.67;2.47;;;29.50;96.70;;;;;;5030310;28;20044;-69
2023/06/11 12:40:28;;;;;;;2.83;2.10;;;29.90;96.70;;;;;;5033748;28;20498;-69
2023/06/11 12:42:59;;;;;;;2.55;2.35;;;30.00;96.70;;;;;;5040148;28;20059;-70
2023/06/11 12:45:29;;;;;;;3.35;2.30;;;29.90;96.70;;;;;;5041743;28;20045;-70
2023/06/11 12:47:57;;;;;;;2.75;2.15;;;29.90;96.70;;;;;;5038591;28;20083;-70
2023/06/11 12:50:27;;;;;;;2.53;2.05;;;30.00;96.70;;;;;;5056292;28;20449;-71
2023/06/11 12:52:55;;;;;;;3.75;2.33;;;29.90;96.70;;;;;;5038836;28;20064;-71
2023/06/11 12:55:24;;;;;;;2.70;2.50;;;29.80;96.70;;;;;;5035822;28;20413;-70